الصفحة الرئيسية
METAR-TAF:

METAR-TAF

مطار :

طوكيو-Haneda, اليابان

مطار طوكيو هانيدا الدولي

دائرة عرض: 35-33N, خط طول: 139-47E, ارتفاع: 5 متر

مراقبة الطقس الحالي

تاريخ ووقت الإصدار 14 دقيقة قبل الساعة 07:00UTC
ريح 7 عقدة من الشمال الشرقي
درجة الحرارة 10°درجة مئوية
الرطوبة 50%
ضغط 1017 hPa
الرؤية 10 كم أو أكثر
غيوم قليلة على ارتفاع 3000 قدم
غيوم متفرقة على ارتفاع 4500 قدم
غيوم مفككة على ارتفاع 7000 قدم

METAR: RJTT 190700Z 05007KT 9999 FEW030 SCT045 BKN070 10/00 Q1017 BECMG 09008KT

زمن: 16:14 (07:14 UTC)

توقعات

تاريخ ووقت الإصدار 2ساعات و 7 دقيقة قبل الساعة 05:07UTC
التوقعات صالحة من19 الساعة 06 UTC إلى 20 الساعة 12 UTC
ريح 13 عقدة من الشرق
الرؤية 10 كم أو أكثر
غيوم قليلة على ارتفاع 2500 قدم
غيوم مفككة على ارتفاع 5000 قدم
أصبح
من 19 الساعة 13 UTC إلى 19 الساعة 15 UTC
ريح 10 عقدة من الشمال/الشمال الشرقي

TAF: RJTT 190507Z 1906/2012 09013KT 9999 FEW025 BKN050 BECMG 1913/1915 02010KT

أرصاد الطقس والتوقعات من أكثر من 4000 مطار (تقارير الطقس للمطار METAR والتنبؤ بالطقس بالمطارTAF).

المحطات المتاحة هي النقط الصفراء والحمراء على الخريطة.

حرك المؤشر فوق النقطة لمعرفة اسم المحطة.

ثم انقر لمعرفة أرصاد وتوقعات الطقس.

لتغيير الخارطة: اضغط على الأزرار الخضراء مع رمز الصليب الأسود للتكبير. على الزر الأخضر مع شرطة للتصغير، أو على الأسهم الخضراء للخرائط المجاورة.


METAR-TAF: